Tomintoul, United Kingdom
Current Conditions -  °F | °C
As of 5:50 AM on Thursday 27 Nov 2014 (Local Time) from EGQK Reporting Station
Overcast Overcast  
Wind Chill: 32°   Ceiling: 4900
Heat Index: 36°   Visibility: 6mi
Dew Point: 36°   Wind: 5mph
Humidity: 100%   Direction: 110°ESE
Pressure: 29.68"   Gusts: NA
Location:  57.18°N, 3.3°W
Report Text: EGQK 270550Z AUTO 11004KT 9999 OVC049/// 02/02 Q1005
Loading
Personal Weather Stations






























Interactive Weather Map New forecast layout! Learn more

10-Day Weather Forecast

Advertisements
Track Severe Weather on mobile